Bude — V7XL2 — position and weather

sailwx.info

Track history (hours):
 
Tides and Currents Weather Stations Pressure Air Temp Water Temp Dewpoint Dewpoint Depression Visibility Wind Speed Wind Dir Waves Ship Positions

Bude

Last reported at 2015-Feb-27 11:22 UTC. Time now 2015-Mar-01 08:33 UTC.
Position N 50°35' E 000°17'.

Length 119 m; draft 7 m.

Type: Cargo ship. MMSI: 538004506.

Date/timePositionNaut miles runAvg speedWind from/ knotsBaromVisibWave heightAir tempDewpointWater temp
2015-Feb-27 11:22N 50°35' E 000°17'810.3
2015-Feb-27 10:34N 50°37' E 000°30'1010.0
2015-Feb-27 09:33N 50°42' E 000°43'28 9.0
2015-Feb-27 06:24N 50°59' E 001°19'7 8.2
2015-Feb-27 05:33N 51°04' E 001°27'9 8.9
2015-Feb-27 04:33N 51°10' E 001°38'9 9.5
2015-Feb-27 03:34N 51°17' E 001°48'1110.7
2015-Feb-27 02:34N 51°26' E 001°56'1010.4
2015-Feb-27 01:33N 51°34' E 002°07'157 8.3
2015-Feb-26 06:31N 53°33' E 004°57'1010.1
2015-Feb-26 05:33N 53°36' E 005°13'10 9.9
2015-Feb-26 04:33N 53°39' E 005°28'9 9.3
2015-Feb-26 03:33N 53°42' E 005°43'8 8.4
2015-Feb-26 02:33N 53°45' E 005°57'50 8.4
2015-Feb-25 20:33N 53°57' E 007°20'1010.0
2015-Feb-25 19:33N 53°59' E 007°36'9 8.5
2015-Feb-25 18:33N 53°53' E 007°46'1010.4
2015-Feb-25 17:33N 53°51' E 008°04'1110.7
2015-Feb-25 16:33N 53°43' E 008°17'9 8.8
2015-Feb-25 15:33N 53°38' E 008°28'7 7.0
2015-Feb-25 14:33N 53°31' E 008°33'7 6.8
2015-Feb-25 13:33N 53°25' E 008°30'5 4.5
2015-Feb-25 12:32N 53°20' E 008°29'0 0.0
2015-Feb-25 11:33N 53°20' E 008°29'0 0.0
2015-Feb-25 10:33N 53°20' E 008°29'0 0.0
2015-Feb-25 09:33N 53°20' E 008°29'0 0.0
2015-Feb-25 08:33N 53°20' E 008°29'0 0.0
2015-Feb-25 07:33N 53°20' E 008°29'0 0.0
2015-Feb-25 06:33N 53°20' E 008°29'0 0.0
2015-Feb-25 05:33N 53°20' E 008°29'0 0.0
2015-Feb-25 04:33N 53°20' E 008°29'0 0.0
2015-Feb-25 03:33N 53°20' E 008°29'0 0.0
2015-Feb-25 02:33N 53°20' E 008°29'0 0.0
2015-Feb-25 01:33N 53°20' E 008°29'0 0.0
2015-Feb-25 00:33N 53°20' E 008°29'0 0.0
2015-Feb-24 23:33N 53°20' E 008°29'0 0.0
2015-Feb-24 22:33N 53°20' E 008°29'0 0.0
2015-Feb-24 21:33N 53°20' E 008°29'0 0.0
2015-Feb-24 20:33N 53°20' E 008°29'0 0.0
2015-Feb-24 19:33N 53°20' E 008°29'0 0.0
2015-Feb-24 18:33N 53°20' E 008°29'0 0.0
2015-Feb-24 17:33N 53°20' E 008°29'0 0.0
2015-Feb-24 16:33N 53°20' E 008°29'0 0.0
2015-Feb-24 15:33N 53°20' E 008°29'0 0.0
2015-Feb-24 14:33N 53°20' E 008°29'0 0.0
2015-Feb-24 13:33N 53°20' E 008°29'0 0.0
2015-Feb-24 12:33N 53°20' E 008°29'0 0.0
2015-Feb-24 11:33N 53°20' E 008°29'0 0.0
2015-Feb-24 10:33N 53°20' E 008°29'0 0.0
2015-Feb-24 09:33N 53°20' E 008°29'0 0.0
2015-Feb-24 08:33N 53°20' E 008°29'0 0.1
2015-Feb-24 07:33N 53°20' E 008°30'3 3.1
2015-Feb-24 06:33N 53°23' E 008°30'6 5.6
2015-Feb-24 05:33N 53°29' E 008°30'5 5.2
2015-Feb-24 04:33N 53°34' E 008°33'9 8.9
2015-Feb-24 03:33N 53°40' E 008°22'10 9.8
2015-Feb-24 02:33N 53°47' E 008°10'1010.4
2015-Feb-24 01:33N 53°52' E 007°54'4 3.6
2015-Feb-24 00:26N 53°55' E 007°50'0 0.0
2015-Feb-23 23:26N 53°55' E 007°50'0 0.0
2015-Feb-23 20:14N 53°55' E 007°50'0 0.0
2015-Feb-23 16:29N 53°55' E 007°50'0 0.1
2015-Feb-23 15:20N 53°55' E 007°50'0 0.0
2015-Feb-23 13:11N 53°55' E 007°50'0 0.0
2015-Feb-23 12:17N 53°55' E 007°50'0 0.0
2015-Feb-23 11:14N 53°55' E 007°50'0 0.0
2015-Feb-23 10:32N 53°55' E 007°50'0 0.0
2015-Feb-23 09:20N 53°55' E 007°50'0 0.1
2015-Feb-23 08:23N 53°55' E 007°50'0 0.0
2015-Feb-23 07:32N 53°55' E 007°50'0 0.0
2015-Feb-23 06:20N 53°55' E 007°49'0 0.0
2015-Feb-23 04:26N 53°55' E 007°49'0 0.0
2015-Feb-23 02:32N 53°55' E 007°49'0 0.1
2015-Feb-23 01:29N 53°55' E 007°50'0 0.0
2015-Feb-22 23:11N 53°55' E 007°50'0 0.0
2015-Feb-22 21:23N 53°55' E 007°50'0 0.0
2015-Feb-22 20:29N 53°55' E 007°50'0 0.0
2015-Feb-22 19:23N 53°55' E 007°50'0 0.0
2015-Feb-22 18:29N 53°55' E 007°50'0 0.0
2015-Feb-22 17:26N 53°55' E 007°49'0 0.0
2015-Feb-22 16:17N 53°55' E 007°49'0 0.1
2015-Feb-22 15:32N 53°55' E 007°50'0 0.1
2015-Feb-22 14:17N 53°55' E 007°50'0 0.0
2015-Feb-22 13:14N 53°55' E 007°50'0 0.0
2015-Feb-22 12:26N 53°55' E 007°50'0 0.0
2015-Feb-22 10:22N 53°55' E 007°50'0 0.0
2015-Feb-22 09:07N 53°55' E 007°50'0 0.0
2015-Feb-22 07:28N 53°55' E 007°50'0 0.0
2015-Feb-22 06:31N 53°55' E 007°50'0 0.0
2015-Feb-22 05:22N 53°55' E 007°50'0 0.0
2015-Feb-22 04:28N 53°55' E 007°49'0 0.0
2015-Feb-22 03:19N 53°55' E 007°50'0 0.1
2015-Feb-22 02:07N 53°55' E 007°50'0 0.0
2015-Feb-22 00:31N 53°55' E 007°50'0 0.0
2015-Feb-21 23:25N 53°55' E 007°50'0 0.0
2015-Feb-21 18:31N 53°55' E 007°50'0 0.1
2015-Feb-21 17:31N 53°55' E 007°50'0 0.0
2015-Feb-21 16:16N 53°55' E 007°50'0 0.0
2015-Feb-21 15:16N 53°55' E 007°50'0 0.0
2015-Feb-21 14:28N 53°55' E 007°50'0 0.0
2015-Feb-21 13:04N 53°55' E 007°50'0 0.0
2015-Feb-21 12:32N 53°55' E 007°50'8 7.5
2015-Feb-21 11:32N 53°55' E 007°37'1111.4
2015-Feb-21 10:33N 53°52' E 007°18'4511.3
2015-Feb-21 06:32N 53°41' E 006°04'1010.1
2015-Feb-21 05:33N 53°38' E 005°48'9 9.4
2015-Feb-21 04:33N 53°35' E 005°33'9 8.9
2015-Feb-21 03:34N 53°33' E 005°19'9 8.4
2015-Feb-21 02:33N 53°40' E 005°10'10 9.7
2015-Feb-21 01:32N 53°48' E 005°02'1110.0
2015-Feb-21 00:25N 53°58' E 004°53'  
Track history (hours):
 
Tides and Currents Weather Stations Pressure Air Temp Water Temp Dewpoint Dewpoint Depression Visibility Wind Speed Wind Dir Waves Ship Positions

Bude

Last reported at 2015-Feb-27 11:22 UTC. Time now 2015-Mar-01 08:33 UTC.
Position N 50°35' E 000°17'.

Length 119 m; draft 7 m.

Type: Cargo ship. MMSI: 538004506.

Date/timePositionNaut miles runAvg speedWind from/ knotsBaromVisibWave heightAir tempDewpointWater temp
2015-Feb-27 11:22N 50°35' E 000°17'810.3
2015-Feb-27 10:34N 50°37' E 000°30'1010.0
2015-Feb-27 09:33N 50°42' E 000°43'28 9.0
2015-Feb-27 06:24N 50°59' E 001°19'7 8.2
2015-Feb-27 05:33N 51°04' E 001°27'9 8.9
2015-Feb-27 04:33N 51°10' E 001°38'9 9.5
2015-Feb-27 03:34N 51°17' E 001°48'1110.7
2015-Feb-27 02:34N 51°26' E 001°56'1010.4
2015-Feb-27 01:33N 51°34' E 002°07'157 8.3
2015-Feb-26 06:31N 53°33' E 004°57'1010.1
2015-Feb-26 05:33N 53°36' E 005°13'10 9.9
2015-Feb-26 04:33N 53°39' E 005°28'9 9.3
2015-Feb-26 03:33N 53°42' E 005°43'8 8.4
2015-Feb-26 02:33N 53°45' E 005°57'50 8.4
2015-Feb-25 20:33N 53°57' E 007°20'1010.0
2015-Feb-25 19:33N 53°59' E 007°36'9 8.5
2015-Feb-25 18:33N 53°53' E 007°46'1010.4
2015-Feb-25 17:33N 53°51' E 008°04'1110.7
2015-Feb-25 16:33N 53°43' E 008°17'9 8.8
2015-Feb-25 15:33N 53°38' E 008°28'7 7.0
2015-Feb-25 14:33N 53°31' E 008°33'7 6.8
2015-Feb-25 13:33N 53°25' E 008°30'5 4.5
2015-Feb-25 12:32N 53°20' E 008°29'0 0.0
2015-Feb-25 11:33N 53°20' E 008°29'0 0.0
2015-Feb-25 10:33N 53°20' E 008°29'0 0.0
2015-Feb-25 09:33N 53°20' E 008°29'0 0.0
2015-Feb-25 08:33N 53°20' E 008°29'0 0.0
2015-Feb-25 07:33N 53°20' E 008°29'0 0.0
2015-Feb-25 06:33N 53°20' E 008°29'0 0.0
2015-Feb-25 05:33N 53°20' E 008°29'0 0.0
2015-Feb-25 04:33N 53°20' E 008°29'0 0.0
2015-Feb-25 03:33N 53°20' E 008°29'0 0.0
2015-Feb-25 02:33N 53°20' E 008°29'0 0.0
2015-Feb-25 01:33N 53°20' E 008°29'0 0.0
2015-Feb-25 00:33N 53°20' E 008°29'0 0.0
2015-Feb-24 23:33N 53°20' E 008°29'0 0.0
2015-Feb-24 22:33N 53°20' E 008°29'0 0.0
2015-Feb-24 21:33N 53°20' E 008°29'0 0.0
2015-Feb-24 20:33N 53°20' E 008°29'0 0.0
2015-Feb-24 19:33N 53°20' E 008°29'0 0.0
2015-Feb-24 18:33N 53°20' E 008°29'0 0.0
2015-Feb-24 17:33N 53°20' E 008°29'0 0.0
2015-Feb-24 16:33N 53°20' E 008°29'0 0.0
2015-Feb-24 15:33N 53°20' E 008°29'0 0.0
2015-Feb-24 14:33N 53°20' E 008°29'0 0.0
2015-Feb-24 13:33N 53°20' E 008°29'0 0.0
2015-Feb-24 12:33N 53°20' E 008°29'0 0.0
2015-Feb-24 11:33N 53°20' E 008°29'0 0.0
2015-Feb-24 10:33N 53°20' E 008°29'0 0.0
2015-Feb-24 09:33N 53°20' E 008°29'0 0.0
2015-Feb-24 08:33N 53°20' E 008°29'0 0.1
2015-Feb-24 07:33N 53°20' E 008°30'3 3.1
2015-Feb-24 06:33N 53°23' E 008°30'6 5.6
2015-Feb-24 05:33N 53°29' E 008°30'5 5.2
2015-Feb-24 04:33N 53°34' E 008°33'9 8.9
2015-Feb-24 03:33N 53°40' E 008°22'10 9.8
2015-Feb-24 02:33N 53°47' E 008°10'1010.4
2015-Feb-24 01:33N 53°52' E 007°54'4 3.6
2015-Feb-24 00:26N 53°55' E 007°50'0 0.0
2015-Feb-23 23:26N 53°55' E 007°50'0 0.0
2015-Feb-23 20:14N 53°55' E 007°50'0 0.0
2015-Feb-23 16:29N 53°55' E 007°50'0 0.1
2015-Feb-23 15:20N 53°55' E 007°50'0 0.0
2015-Feb-23 13:11N 53°55' E 007°50'0 0.0
2015-Feb-23 12:17N 53°55' E 007°50'0 0.0
2015-Feb-23 11:14N 53°55' E 007°50'0 0.0
2015-Feb-23 10:32N 53°55' E 007°50'0 0.0
2015-Feb-23 09:20N 53°55' E 007°50'0 0.1
2015-Feb-23 08:23N 53°55' E 007°50'0 0.0
2015-Feb-23 07:32N 53°55' E 007°50'0 0.0
2015-Feb-23 06:20N 53°55' E 007°49'0 0.0
2015-Feb-23 04:26N 53°55' E 007°49'0 0.0
2015-Feb-23 02:32N 53°55' E 007°49'0 0.1
2015-Feb-23 01:29N 53°55' E 007°50'0 0.0
2015-Feb-22 23:11N 53°55' E 007°50'0 0.0
2015-Feb-22 21:23N 53°55' E 007°50'0 0.0
2015-Feb-22 20:29N 53°55' E 007°50'0 0.0
2015-Feb-22 19:23N 53°55' E 007°50'0 0.0
2015-Feb-22 18:29N 53°55' E 007°50'0 0.0
2015-Feb-22 17:26N 53°55' E 007°49'0 0.0
2015-Feb-22 16:17N 53°55' E 007°49'0 0.1
2015-Feb-22 15:32N 53°55' E 007°50'0 0.1
2015-Feb-22 14:17N 53°55' E 007°50'0 0.0
2015-Feb-22 13:14N 53°55' E 007°50'0 0.0
2015-Feb-22 12:26N 53°55' E 007°50'0 0.0
2015-Feb-22 10:22N 53°55' E 007°50'0 0.0
2015-Feb-22 09:07N 53°55' E 007°50'0 0.0
2015-Feb-22 07:28N 53°55' E 007°50'0 0.0
2015-Feb-22 06:31N 53°55' E 007°50'0 0.0
2015-Feb-22 05:22N 53°55' E 007°50'0 0.0
2015-Feb-22 04:28N 53°55' E 007°49'0 0.0
2015-Feb-22 03:19N 53°55' E 007°50'0 0.1
2015-Feb-22 02:07N 53°55' E 007°50'0 0.0
2015-Feb-22 00:31N 53°55' E 007°50'0 0.0
2015-Feb-21 23:25N 53°55' E 007°50'0 0.0
2015-Feb-21 18:31N 53°55' E 007°50'0 0.1
2015-Feb-21 17:31N 53°55' E 007°50'0 0.0
2015-Feb-21 16:16N 53°55' E 007°50'0 0.0
2015-Feb-21 15:16N 53°55' E 007°50'0 0.0
2015-Feb-21 14:28N 53°55' E 007°50'0 0.0
2015-Feb-21 13:04N 53°55' E 007°50'0 0.0
2015-Feb-21 12:32N 53°55' E 007°50'8 7.5
2015-Feb-21 11:32N 53°55' E 007°37'1111.4
2015-Feb-21 10:33N 53°52' E 007°18'4511.3
2015-Feb-21 06:32N 53°41' E 006°04'1010.1
2015-Feb-21 05:33N 53°38' E 005°48'9 9.4
2015-Feb-21 04:33N 53°35' E 005°33'9 8.9
2015-Feb-21 03:34N 53°33' E 005°19'9 8.4
2015-Feb-21 02:33N 53°40' E 005°10'10 9.7
2015-Feb-21 01:32N 53°48' E 005°02'1110.0
2015-Feb-21 00:25N 53°58' E 004°53'  

Dump ship's entire track history